Aktualne dane pomiarowe

Uwaga, wersja testowa! Automatyczne pobieranie danych za pomocą narzędzi lub skryptów to umożliwiających jest zabronione.

Dane meteo z obszaru Polski uzyskane na podstawie depesz SYNOP pobieranych co godzinę z NWS. Najedź myszką na symbol przedstawiony w tabeli, aby uzyskać informacje co do jego znaczenia. Prosimy pamiętać, że to testowa wersja strony, która jeszcze nie jest ukończona. Stworzono również jest krótki FAQ dotyczący korzystania z tej podstrony Anomalie temperatury w chwili obecnej odniesione są do okresu referencyjnego 1951-2016. Okres ten będzie później zmieniony na 1981-2010. Kliknij ikonę aby pobrać plik CSV. Kliknij ikonę aby wygenerować mapę synoptyczną dla danego terminu.

Wybierz Datę:    

        

Łask (12454)

Dane terminowe dla wybranej stacji. Kliknij datę, aby otrzymać dane z tego terminu dla wszystkich stacji.

TemperaturaZachmurzenieWiatrCiśnienieOpadyPogoda
 Data t td wb tx tn tg rh  Nt Nl Cl Cm Ch ws wd g1 g2 wx mslp ppp ch 24h 12h t ww ww w1 w2  
2019-07-12 23:00:00 15.9 13.2 14.0--- 8435.0wx-3wx---1010.1 987.7 -0.1---------
2019-07-12 22:00:00 15.8 13.1 14.0--- 8435.0wx-2wx---1010.1 987.7 0.5---------
2019-07-12 21:00:00 15.8 12.5 13.6--- 8140.0wx-wx2wx---1010.1 987.6 0.9---------
2019-07-12 20:00:00 16.5 12.3 13.7--- 7640.0wx-wx2wx---1010.1 987.7 1.4---------
2019-07-12 19:00:00 18.5 11.3 14.0--- 6345.0wx-wxwx4wx---1009.4 987.2 1.0---------
2019-07-12 18:00:00 20.2 10.9 14.6 26.3 17.8- 5540.0wxwxwxwx6wx---1008.9 986.8 0.5- 0.012------
2019-07-12 17:00:00 21.5 10.7 15.0--- 5060.0wxwxwxwx3wx---1008.3 986.3 -0.3---------
2019-07-12 16:00:00 23.5 7.3 14.4--- 3555.0wxwxwxwx0----1008.0 986.2 -0.5---------
2019-07-12 15:00:00 23.9 6.6 14.3--- 3365.0wxwxwxwxwx1wx---1008.1 986.3 -0.6---------
2019-07-12 14:00:00 24.3 5.8 14.1--- 3065.0wxwxwxwxwx2wx---1008.4 986.6 -0.9---------
2019-07-12 13:00:00 25.8 5.0 14.4--- 2665.0wxwxwxwxwx3wx---1008.4 986.7 -1.0---------
2019-07-12 12:00:00 25.4 6.5 14.9--- 3065.0wx-3wx---1008.7 986.9 -1.2- 0.06------
2019-07-12 11:00:00 23.7 5.9 13.9--- 3265.0wx-3wx---1009.3 987.5 -0.8---------
2019-07-12 10:00:00 24.0 6.0 14.1--- 3165.0wxwxwxwx3wx---1009.5 987.7 -0.8---------
2019-07-12 09:00:00 23.3 7.5 14.4--- 3665.0wxwxwxwx3wx-8-1010.0 988.1 -0.4---------
2019-07-12 08:00:00 22.1 6.6 13.5--- 3765.0wx-wxwx2wx---1010.3 988.3 -0.4---------
2019-07-12 07:00:00 20.7 8.9 13.9--- 4760.0wx-wxwx2wx---1010.6 988.5 -0.3---------
2019-07-12 06:00:00 17.9 9.3 12.8 19.8 11.0 8 5750.0wx-wxwx2wx---1010.8 988.5 -0.3 0.0 0.012------
2019-07-12 05:00:00 14.3 9.1 11.1--- 7140.0wx-wxwx1wx---1011.2 988.6 -0.3---------
2019-07-12 04:00:00 12.4 7.9 9.6--- 7430.0wx-wxwx2wx---1011.5 988.7 -0.3---------
2019-07-12 03:00:00 11.2 7.5 8.9--- 7840.0wx-2wx---1011.7 988.8 -0.4---------
2019-07-12 02:00:00 12.1 7.6 9.3--- 7445.0wx-1wx---1011.8 989.0 -0.6---------
2019-07-12 01:00:00 11.9 7.8 9.3--- 7640.0wx-1wx---1012.0 989.1 -0.5---------
2019-07-12 00:00:00 12.4 7.9 9.6--- 7445.0wx-1wx---1012.0 989.2 -0.3- 0.06------
2019-07-11 23:00:00 12.5 8.2 9.8--- 7535.0wx-1wx---1012.3 989.6 0.1---------
2019-07-11 22:00:00 13.3 7.9 10.0--- 7050.0wx-1wx---1012.4 989.7 0.5---------
2019-07-11 21:00:00 13.7 8.1 10.3--- 6930.0wx-wxwx1wx---1012.2 989.5 0.6---------
2019-07-11 20:00:00 14.1 7.6 10.2--- 6530.0wx-wxwx1wx---1012.1 989.4 0.3---------
2019-07-11 19:00:00 16.1 7.7 11.2--- 5730.0wx-wxwx1wx---1011.6 989.1 -0.1---------
2019-07-11 18:00:00 19.8 5.5 12.0 21.0 12.9- 3930.0wxwxwxwx2wx---1011.1 988.9 -0.4- 0.012------
2019-07-11 17:00:00 20.4 5.9 12.5--- 3930.0wxwxwx2wx---1011.3 989.1 -0.5---------
2019-07-11 16:00:00 20.2 6.5 12.6--- 4130.0wxwxwx2wx---1011.4 989.2 -0.6---------
2019-07-11 15:00:00 19.4 5.5 11.9--- 4030.0wxwxwx4wx---1011.6 989.3 -0.5---------
2019-07-11 14:00:00 19.3 7.3 12.5--- 4630.0wxwxwx3wx---1011.9 989.6 -0.2---------
2019-07-11 13:00:00 18.6 6.6 11.9--- 4630.0wxwxwx5wx---1012.1 989.8 -0.2---------
2019-07-11 12:00:00 18.7 5.6 11.6--- 4230.0wxwxwx5wx-10-1012.1 989.8 -0.5- 0.06------
2019-07-11 11:00:00 18.8 5.6 11.6--- 4230.0wxwxwx4wx---1012.1 989.8 -0.3---------
2019-07-11 10:00:00 17.2 6.8 11.3--- 5065.0wx-4wx-10-1012.5 990.1 0.2---------
2019-07-11 09:00:00 16.5 8.2 11.6--- 5830.0wxwxwx3wx---1012.8 990.3 0.5---------
2019-07-11 08:00:00 14.9 8.1 10.8--- 6430.0wxwxwx5wx---1012.7 990.1 0.8---------
2019-07-11 07:00:00 14.4 10.1 11.6--- 7530.0wxwxwx5wx---1012.6 989.9 0.8---------
2019-07-11 06:00:00 12.9 10.7 11.4 14.3 10.2- 8730.0wxwxwxwx4wx---1012.6 989.8 0.9 15.2 13.012------
2019-07-11 05:00:00 11.8 11.3 11.4--- 9714.0wxwxwx4wx---1012.2 989.4 0.1---------
2019-07-11 04:00:00 11.2 11.0 11.0--- 9926.0wxwxwx2wx---1012.0 989.2 -0.7---------
2019-07-11 03:00:00 10.7 10.7 10.6--- 10030.0wx-3wx---1011.9 989.0 -1.5---------
1.1 ms

 

Print Friendly, PDF & Email